PBD197 UUWW-URMO
Flight info
| Callsign | PBD197 |
|---|---|
| Flight time | 2h 42m |
| Altitude | 35000 |
| Route | TOGMO3A TOGMO M56 ABAGI B105 NATIT DCT MOLED N50 LIDUS G242 ZG DCT ITAKA DCT OBBUD DCT AMKOL DCT REMKA DCT GASNI G914 GORAK GORAK5S |
| Aircraft | B738/M-SDE2E3FGHIRWXY/LB1 |
Departure
| Time | 2026-04-30 15:04 |
|---|---|
| Airport | Vnukovo International Airport (UUWW) |
Arrival
| Time | 2026-04-30 17:47 |
|---|---|
| Airport | Vladikavkaz Beslan International Airport (URMO) |
| Time | Latitude | Longitude | Altitude | Speed | Heading |
|---|---|---|---|---|---|
| 2026-04-30 12:55 | 55.60333 | 37.27734 | 673 ft | 0 kts | 96° |
| 2026-04-30 14:59 | 55.60333 | 37.27750 | 673 ft | 3 kts | 96° |
| 2026-04-30 15:00 | 55.60193 | 37.27850 | 676 ft | 15 kts | 164° |
| 2026-04-30 15:00 | 55.60074 | 37.28108 | 679 ft | 14 kts | 95° |
| 2026-04-30 15:01 | 55.60096 | 37.28428 | 678 ft | 13 kts | 65° |
| 2026-04-30 15:01 | 55.60155 | 37.28547 | 678 ft | 13 kts | 46° |
| 2026-04-30 15:01 | 55.60165 | 37.28792 | 678 ft | 12 kts | 134° |
| 2026-04-30 15:02 | 55.60101 | 37.28874 | 678 ft | 11 kts | 162° |
| 2026-04-30 15:02 | 55.60030 | 37.28905 | 681 ft | 10 kts | 167° |
| 2026-04-30 15:03 | 55.59827 | 37.28989 | 688 ft | 10 kts | 179° |
| 2026-04-30 15:03 | 55.59733 | 37.28721 | 686 ft | 28 kts | 248° |
| 2026-04-30 15:04 | 55.59142 | 37.26057 | 876 ft | 183 kts | 250° |
| 2026-04-30 15:04 | 55.56588 | 37.20501 | 4465 ft | 190 kts | 239° |
| 2026-04-30 15:05 | 55.53919 | 37.14207 | 6161 ft | 240 kts | 202° |
| 2026-04-30 15:06 | 55.50668 | 37.12798 | 7715 ft | 244 kts | 195° |
| 2026-04-30 15:06 | 55.47340 | 37.13282 | 9010 ft | 261 kts | 148° |
| 2026-04-30 15:07 | 55.44213 | 37.17452 | 8995 ft | 289 kts | 141° |
| 2026-04-30 15:07 | 55.41060 | 37.21775 | 8979 ft | 285 kts | 142° |
| 2026-04-30 15:08 | 55.37933 | 37.25949 | 8989 ft | 284 kts | 143° |
| 2026-04-30 15:08 | 55.33680 | 37.33158 | 8999 ft | 285 kts | 132° |
| 2026-04-30 15:09 | 55.31355 | 37.38709 | 8991 ft | 284 kts | 105° |
| 2026-04-30 15:09 | 55.30394 | 37.45446 | 8993 ft | 286 kts | 102° |
| 2026-04-30 15:10 | 55.29439 | 37.52228 | 8995 ft | 287 kts | 103° |
| 2026-04-30 15:11 | 55.27312 | 37.65622 | 8977 ft | 287 kts | 122° |
| 2026-04-30 15:11 | 55.24279 | 37.70229 | 9998 ft | 292 kts | 144° |
| 2026-04-30 15:12 | 55.19073 | 37.76749 | 11708 ft | 321 kts | 144° |
| 2026-04-30 15:13 | 55.15531 | 37.81531 | 13076 ft | 326 kts | 135° |
| 2026-04-30 15:14 | 55.09319 | 37.93143 | 13307 ft | 332 kts | 133° |
| 2026-04-30 15:14 | 55.04485 | 38.01924 | 15679 ft | 337 kts | 134° |
| 2026-04-30 15:16 | 54.96093 | 38.16958 | 19147 ft | 357 kts | 134° |
| 2026-04-30 15:17 | 54.89155 | 38.29327 | 19219 ft | 357 kts | 134° |
| 2026-04-30 15:18 | 54.81795 | 38.46581 | 20587 ft | 363 kts | 117° |
| 2026-04-30 15:19 | 54.78094 | 38.58194 | 21205 ft | 369 kts | 119° |
| 2026-04-30 17:39 | 43.32190 | 44.43042 | 5278 ft | 247 kts | 281° |
| 2026-04-30 17:41 | 43.25036 | 44.35695 | 4585 ft | 179 kts | 142° |
| 2026-04-30 17:42 | 43.23786 | 44.38531 | 4603 ft | 179 kts | 99° |
| 2026-04-30 17:42 | 43.23053 | 44.43436 | 3955 ft | 158 kts | 101° |
| 2026-04-30 17:43 | 43.22657 | 44.46233 | 3435 ft | 144 kts | 100° |
| 2026-04-30 17:44 | 43.22056 | 44.50244 | 2845 ft | 144 kts | 101° |
| 2026-04-30 17:44 | 43.21451 | 44.54333 | 2314 ft | 148 kts | 100° |
| 2026-04-30 17:46 | 43.20508 | 44.60758 | 1674 ft | 78 kts | 102° |
| 2026-04-30 17:47 | 43.20357 | 44.61280 | 1687 ft | 3 kts | 189° |
| 2026-04-30 17:48 | 43.20286 | 44.61264 | 1688 ft | 3 kts | 189° |
| 2026-04-30 17:48 | 43.20154 | 44.61168 | 1681 ft | 10 kts | 275° |
| 2026-04-30 17:49 | 43.20209 | 44.60792 | 1683 ft | 7 kts | 282° |
| 2026-04-30 17:50 | 43.20272 | 44.60662 | 1681 ft | 4 kts | 10° |
| 2026-04-30 17:51 | 43.20283 | 44.60665 | 1688 ft | 0 kts | 11° |